Salina, KS (67401)

3:21 AM CDT on March 27, 2015 (GMT -0500)
Willis Ave | | Change Station
CLOSE
Current Station
Personal Weather Station
Location: Salina, KS
Elevation: 1247 ft
Nearby Weather Stations

Elev 1247 ft 38.81 °N, 97.62 °W | Updated 10 seconds ago

Overcast
Overcast
36.7 °F
Feels Like 34 °F
N
4.0
Wind Variable Wind from ENE
Gusts 12.0 mph

Today
High -- | Low -- °F
--% Chance of Precip.
Yesterday
High -- | Low -- °F
Precip. -- in
7:23 AM 7:49 PM
Waxing Crescent, 50% visible
Pressure 30.22 in
Visibility 7.0 miles
Clouds Overcast 1100 ft
Windchill 34 °F
Dew Point 32 °F
Humidity 84%
Rainfall 0.00 in
Snow Depth Not available.
UV 0 out of 12
Pollen 6.00 out of 12
Air Quality Not available.
Flu Activity Not available.
METAR KSLN 270753Z AUTO 03011KT 7SM OVC011 03/00 A3021 RMK AO2 PK WND 04027/0708 SLP233 T00280000

More Conditions Fewer Conditions

Pressure 30.22 in
Visibility 7.0 miles
Clouds Overcast 1100 ft
Windchill 34 °F
Dew Point 32 °F
Humidity 84%
Rainfall 0.00 in
Snow Depth Not available.
UV 0 out of 12
Pollen 6.00 out of 12
Air Quality Not available.
Flu Activity Not available.
METAR KSLN 270753Z AUTO 03011KT 7SM OVC011 03/00 A3021 RMK AO2 PK WND 04027/0708 SLP233 T00280000

More Conditions Fewer Conditions

10-Day Weather Forecast

Almanac

Astronomy

Mar. 27, 2015 Rise Set
Actual Time
Civil Twilight
Nautical Twilight
Astronomical Twilight
Moon
Length of Visible Light
Length of Day
Tomorrow will be .
, % of the Moon is Illuminated

Today's Extremes

State Highs State Lows

Community

WunderPhotos

Upload Photos

1,808,705 photos uploaded!

WunderBlogs® & News

Nearby

Air Quality

  Air Quality AQ Index Pollutant
Not available.

Snow Depth

Station Depth Elevation

Earthquake Activity

City Distance Mag. Time & Date
Minimum magnitude displayed is 2.5.

Coastal Water Temperatures

Place Temperature

Stations

Nearby Weather Stations

Station Location Temp. Windchill Dew Point Humidity Wind Precip. Elev Updated Type